Time;durP1;ratioP1;P1;durP2;ratioP2;P2;SDS_P1;SDS_P2;PMS_P1;PMS_P2;Temp;Humidity;BMP_temperature;BMP_pressure;BME280_temperature;BME280_humidity;BME280_pressure;Samples;Min_cycle;Max_cycle;Signal;HPM_P1;HPM_P2
2022/06/26 00:00:22;;;;;;;;;;;;;;;21.18;60.34;99454.63;4471705;32;19981;-83
2022/06/26 00:02:47;;;;;;;;;;;;;;;21.14;60.33;99459.34;4456939;32;25809;-84
2022/06/26 00:05:12;;;;;;;;;;;;;;;21.10;60.33;99457.91;4456587;32;32453;-83
2022/06/26 00:07:37;;;;;;;;;;;;;;;21.12;60.34;99453.31;4457428;32;20360;-85
2022/06/26 00:10:03;;;;;;;;;;;;;;;21.04;60.33;99463.66;4457152;32;22856;-85
2022/06/26 00:12:28;;;;;;;;;;;;;;;21.08;60.32;99465.13;4444582;32;19987;-85
2022/06/26 00:14:53;;;;;;;;;;;;;;;21.09;60.34;99476.56;4457691;32;20012;-85
2022/06/26 00:17:19;;;;;;;;;;;;;;;20.96;60.32;99474.03;4444380;32;20325;-85
2022/06/26 00:19:44;;;;;;;;;;;;;;;20.93;60.32;99476.91;4457209;32;19984;-85
2022/06/26 00:22:09;;;;;;;;;;;;;;;20.87;60.32;99472.12;4444021;32;22077;-85
2022/06/26 00:24:35;;;;;;;;;;;;;;;20.73;60.32;99486.41;4444245;32;19983;-85
2022/06/26 00:27:02;;;;;;;;;;;;;;;20.80;60.32;99498.19;4457115;32;20086;-85
2022/06/26 00:29:28;;;;;;;;;;;;;;;20.92;60.32;99488.47;4444546;32;19993;-85
2022/06/26 00:31:53;;;;;;;;;;;;;;;20.72;60.32;99489.19;4457349;32;19988;-85
2022/06/26 00:34:18;;;;;;;;;;;;;;;20.72;60.32;99482.09;4457022;32;23051;-85
2022/06/26 00:36:43;;;;;;;;;;;;;;;20.81;60.32;99489.28;4469729;32;21270;-84
2022/06/26 00:39:09;;;;;;;;;;;;;;;20.67;60.31;99494.00;4457513;32;20001;-85
2022/06/26 00:41:35;;;;;;;;;;;;;;;20.68;60.31;99491.22;4457250;32;19976;-84
2022/06/26 00:44:00;;;;;;;;;;;;;;;20.56;60.31;99489.53;4457135;32;19999;-85
2022/06/26 00:46:25;;;;;;;;;;;;;;;20.74;60.32;99489.91;4470727;32;25782;-84
2022/06/26 00:48:51;;;;;;;;;;;;;;;20.78;60.32;99484.25;4471516;32;20341;-85
2022/06/26 00:51:17;;;;;;;;;;;;;;;20.86;60.33;99483.66;4457513;32;19983;-84
2022/06/26 00:53:42;;;;;;;;;;;;;;;20.64;60.31;99492.44;4444264;32;19973;-84
2022/06/26 00:56:07;;;;;;;;;;;;;;;20.57;60.31;99500.94;4444151;32;20007;-84
2022/06/26 00:58:32;;;;;;;;;;;;;;;20.67;60.31;99502.78;4456484;32;26593;-84
2022/06/26 01:00:58;;;;;;;;;;;;;;;20.58;60.31;99502.62;4457087;32;20309;-85
2022/06/26 01:03:23;;;;;;;;;;;;;;;20.50;60.30;99501.41;4457110;32;20012;-85
2022/06/26 01:05:48;;;;;;;;;;;;;;;20.26;60.29;99505.06;4470660;32;29183;-85
2022/06/26 01:08:13;;;;;;;;;;;;;;;20.36;60.30;99514.84;4457116;32;20012;-84
2022/06/26 01:10:39;;;;;;;;;;;;;;;20.17;60.29;99512.75;4456764;32;22948;-84
2022/06/26 01:13:04;;;;;;;;;;;;;;;20.22;60.28;99507.09;4456647;32;19972;-85
2022/06/26 01:15:29;;;;;;;;;;;;;;;20.18;60.29;99516.22;4456283;32;24443;-86
2022/06/26 01:17:54;;;;;;;;;;;;;;;20.32;60.29;99508.06;4444290;32;20004;-85
2022/06/26 01:20:20;;;;;;;;;;;;;;;20.23;60.29;99506.13;4456800;32;20598;-86
2022/06/26 01:22:45;;;;;;;;;;;;;;;20.20;60.28;99516.94;4456802;32;20024;-86
2022/06/26 01:25:10;;;;;;;;;;;;;;;20.20;60.28;99514.31;4456494;32;19989;-85
2022/06/26 01:27:39;;;;;;;;;;;;;;;19.99;60.28;99516.75;4444042;32;20333;-84
2022/06/26 01:30:05;;;;;;;;;;;;;;;19.95;60.27;99525.03;4443961;32;20366;-84
2022/06/26 01:32:30;;;;;;;;;;;;;;;19.90;60.27;99522.72;4457050;32;19992;-85
2022/06/26 01:34:56;;;;;;;;;;;;;;;20.14;60.28;99525.34;4471101;32;20019;-85
2022/06/26 01:37:21;;;;;;;;;;;;;;;20.26;60.29;99518.28;4456314;32;19996;-85
2022/06/26 01:39:46;;;;;;;;;;;;;;;20.26;60.29;99519.13;4456193;32;22258;-85
2022/06/26 01:42:12;;;;;;;;;;;;;;;20.31;60.29;99516.13;4456777;32;19973;-85
2022/06/26 01:44:37;;;;;;;;;;;;;;;20.15;60.28;99513.81;4456065;32;30691;-85
2022/06/26 01:47:02;;;;;;;;;;;;;;;20.18;60.29;99516.22;4456235;32;27453;-85
2022/06/26 01:49:28;;;;;;;;;;;;;;;20.03;60.28;99527.94;4456399;32;19981;-85
2022/06/26 01:51:54;;;;;;;;;;;;;;;19.95;60.27;99520.59;4443880;32;20526;-85
2022/06/26 01:54:20;;;;;;;;;;;;;;;19.89;60.27;99521.87;4456859;32;19985;-84
2022/06/26 01:56:45;;;;;;;;;;;;;;;19.91;60.27;99525.25;4456747;32;20388;-84
2022/06/26 01:59:10;;;;;;;;;;;;;;;19.75;60.25;99531.78;4443877;32;20029;-84
2022/06/26 02:01:36;;;;;;;;;;;;;;;19.80;60.27;99529.63;4443585;32;20363;-85
2022/06/26 02:04:01;;;;;;;;;;;;;;;19.74;60.26;99536.22;4443612;32;19989;-84
2022/06/26 02:06:27;;;;;;;;;;;;;;;19.60;60.25;99537.19;4443580;32;19993;-84
2022/06/26 02:08:52;;;;;;;;;;;;;;;19.64;60.26;99532.56;4470322;32;23757;-84
2022/06/26 02:14:01;;;;;;;;;;;;;;;19.79;60.26;99538.50;4470770;32;20839;-83
2022/06/26 02:16:27;;;;;;;;;;;;;;;19.72;60.26;99538.13;4470384;32;19981;-83
2022/06/26 02:18:53;;;;;;;;;;;;;;;19.68;60.25;99544.59;4470499;32;20278;-83
2022/06/26 02:21:19;;;;;;;;;;;;;;;19.77;60.25;99538.63;4443428;32;20336;-82
2022/06/26 02:23:44;;;;;;;;;;;;;;;19.75;60.25;99543.19;4456350;32;20016;-83
2022/06/26 02:26:10;;;;;;;;;;;;;;;19.78;60.26;99545.59;4456187;32;19997;-83
2022/06/26 02:28:35;;;;;;;;;;;;;;;19.57;60.25;99549.78;4456360;32;19995;-83
2022/06/26 02:31:00;;;;;;;;;;;;;;;19.56;60.25;99554.22;4443530;32;19996;-83
2022/06/26 02:33:26;;;;;;;;;;;;;;;19.62;60.25;99556.41;4455896;32;19995;-82
2022/06/26 02:35:52;;;;;;;;;;;;;;;19.57;60.25;99550.63;4470276;32;20033;-83
2022/06/26 02:38:17;;;;;;;;;;;;;;;19.52;60.24;99547.47;4456165;32;20025;-83
2022/06/26 02:40:44;;;;;;;;;;;;;;;19.53;60.24;99551.81;4456167;32;19981;-84
2022/06/26 02:43:09;;;;;;;;;;;;;;;19.61;60.24;99556.53;4456301;32;19977;-83
2022/06/26 02:45:34;;;;;;;;;;;;;;;19.57;60.25;99555.06;4456455;32;20054;-84
2022/06/26 02:47:59;;;;;;;;;;;;;;;19.44;60.24;99552.44;4463914;32;20351;-84
2022/06/26 02:50:25;;;;;;;;;;;;;;;19.58;60.25;99559.41;4463408;32;20018;-84
2022/06/26 02:52:50;;;;;;;;;;;;;;;19.44;60.24;99559.53;4446054;32;19985;-84
2022/06/26 02:55:15;;;;;;;;;;;;;;;19.56;60.25;99564.78;4455997;32;19988;-84
2022/06/26 02:57:40;;;;;;;;;;;;;;;19.40;60.25;99563.31;4455436;32;21962;-83
2022/06/26 03:00:06;;;;;;;;;;;;;;;19.48;60.25;99564.47;4456391;32;20301;-84
2022/06/26 03:02:32;;;;;;;;;;;;;;;19.33;60.24;99573.47;4457965;32;20006;-83
2022/06/26 03:04:57;;;;;;;;;;;;;;;19.45;60.24;99577.91;4444933;32;20580;-83
2022/06/26 03:07:22;;;;;;;;;;;;;;;19.56;60.25;99582.44;4457742;32;20022;-84
2022/06/26 03:09:47;;;;;;;;;;;;;;;19.70;60.26;99582.28;4457619;32;19973;-84
2022/06/26 03:12:13;;;;;;;;;;;;;;;19.83;60.25;99584.88;4471799;32;19981;-84
2022/06/26 03:14:38;;;;;;;;;;;;;;;19.82;60.26;99580.53;4444918;32;19981;-85
2022/06/26 03:17:03;;;;;;;;;;;;;;;19.91;60.26;99583.38;4457757;32;20009;-85
2022/06/26 03:19:29;;;;;;;;;;;;;;;20.04;60.27;99582.47;4444880;32;20253;-84
2022/06/26 03:21:54;;;;;;;;;;;;;;;19.89;60.26;99590.56;4444787;32;20292;-85
2022/06/26 03:24:20;;;;;;;;;;;;;;;19.87;60.26;99597.78;4457175;32;27893;-84
2022/06/26 03:26:45;;;;;;;;;;;;;;;20.01;60.26;99590.63;4457542;32;20053;-85
2022/06/26 03:29:11;;;;;;;;;;;;;;;20.07;60.27;99590.16;4457013;32;26987;-84
2022/06/26 03:31:36;;;;;;;;;;;;;;;20.14;60.27;99594.91;4444641;32;19977;-85
2022/06/26 03:34:01;;;;;;;;;;;;;;;20.13;60.28;99595.84;4444793;32;19992;-84
2022/06/26 03:36:27;;;;;;;;;;;;;;;20.15;60.29;99596.59;4457277;32;20257;-84
2022/06/26 03:38:53;;;;;;;;;;;;;;;20.24;60.29;99589.75;4457943;32;20309;-84
2022/06/26 03:41:18;;;;;;;;;;;;;;;20.12;60.28;99598.63;4457472;32;19977;-83
2022/06/26 03:43:43;;;;;;;;;;;;;;;20.08;60.27;99594.47;4444659;32;20012;-84
2022/06/26 03:46:08;;;;;;;;;;;;;;;20.13;60.27;99598.50;4471814;32;19987;-84
2022/06/26 03:48:34;;;;;;;;;;;;;;;20.22;60.28;99596.97;4457825;32;20038;-83
2022/06/26 03:50:59;;;;;;;;;;;;;;;20.14;60.27;99599.34;4457406;32;24032;-83
2022/06/26 03:53:24;;;;;;;;;;;;;;;20.23;60.29;99599.50;4457264;32;20020;-83
2022/06/26 03:55:50;;;;;;;;;;;;;;;20.30;60.28;99606.94;4456931;32;20355;-83
2022/06/26 03:58:15;;;;;;;;;;;;;;;20.33;60.28;99612.84;4444547;32;20268;-84
2022/06/26 04:00:40;;;;;;;;;;;;;;;20.21;60.28;99606.69;4456721;32;26272;-84
2022/06/26 04:03:05;;;;;;;;;;;;;;;20.15;60.27;99601.03;4444430;32;20036;-84
2022/06/26 04:05:31;;;;;;;;;;;;;;;20.37;60.29;99589.69;4457434;32;19977;-84
2022/06/26 04:07:56;;;;;;;;;;;;;;;20.21;60.28;99597.91;4444383;32;19973;-84
2022/06/26 04:10:22;;;;;;;;;;;;;;;20.45;60.29;99592.62;4457245;32;19985;-84
2022/06/26 04:12:47;;;;;;;;;;;;;;;20.39;60.28;99588.63;4457252;32;20034;-84
2022/06/26 04:15:12;;;;;;;;;;;;;;;20.45;60.29;99590.84;4456956;32;20350;-84
2022/06/26 04:17:38;;;;;;;;;;;;;;;20.41;60.29;99586.75;4456850;32;25558;-86
2022/06/26 04:20:03;;;;;;;;;;;;;;;20.63;60.31;99596.53;4471490;32;19977;-85
2022/06/26 04:22:28;;;;;;;;;;;;;;;20.79;60.31;99602.31;4444548;32;20016;-85
2022/06/26 04:24:53;;;;;;;;;;;;;;;21.07;60.33;99595.78;4457334;32;20039;-84
2022/06/26 04:27:19;;;;;;;;;;;;;;;21.20;60.33;99586.88;4456753;32;28152;-84
2022/06/26 04:29:44;;;;;;;;;;;;;;;21.19;60.33;99585.19;4443915;32;20889;-84
2022/06/26 04:32:09;;;;;;;;;;;;;;;21.26;60.34;99589.06;4456526;32;25830;-85
2022/06/26 04:34:34;;;;;;;;;;;;;;;21.39;60.34;99584.50;4444566;32;20257;-86
2022/06/26 04:37:00;;;;;;;;;;;;;;;21.59;60.35;99585.56;4470736;32;25979;-84
2022/06/26 04:39:25;;;;;;;;;;;;;;;21.73;60.36;99594.06;4457239;32;20007;-84
2022/06/26 04:41:51;;;;;;;;;;;;;;;22.00;60.38;99587.47;4456369;32;24186;-85
2022/06/26 04:44:18;;;;;;;;;;;;;;;21.97;60.38;99590.37;4457145;32;19977;-84
2022/06/26 04:46:43;;;;;;;;;;;;;;;22.18;60.39;99588.66;4444002;32;19973;-85
2022/06/26 04:49:08;;;;;;;;;;;;;;;22.16;60.38;99592.41;4471531;32;19991;-84
2022/06/26 04:51:35;;;;;;;;;;;;;;;22.04;60.37;99584.50;4457508;32;19989;-84
2022/06/26 04:54:01;;;;;;;;;;;;;;;22.21;60.39;99592.84;4457422;32;20010;-85
2022/06/26 04:56:26;;;;;;;;;;;;;;;22.21;60.38;99588.41;4444010;32;20015;-84
2022/06/26 04:58:52;;;;;;;;;;;;;;;22.28;60.39;99589.59;4456540;32;25803;-84
2022/06/26 05:01:17;;;;;;;;;;;;;;;22.46;60.40;99589.84;4456867;32;20028;-84
2022/06/26 05:03:42;;;;;;;;;;;;;;;22.54;60.40;99595.38;4456516;32;22546;-84
2022/06/26 05:06:07;;;;;;;;;;;;;;;22.69;60.40;99595.88;4456893;32;19976;-85
2022/06/26 05:08:33;;;;;;;;;;;;;;;22.72;60.40;99593.00;4471257;32;20348;-85
2022/06/26 05:10:58;;;;;;;;;;;;;;;23.01;60.42;99593.19;4443916;32;20008;-85
2022/06/26 05:13:23;;;;;;;;;;;;;;;23.16;60.43;99591.84;4457284;32;19973;-85
2022/06/26 05:15:48;;;;;;;;;;;;;;;23.25;60.43;99590.22;4456919;32;19987;-84
2022/06/26 05:18:14;;;;;;;;;;;;;;;23.52;60.45;99586.94;4443978;32;20017;-85
2022/06/26 05:20:39;;;;;;;;;;;;;;;23.72;60.46;99590.53;4443938;32;20012;-84
2022/06/26 05:23:04;;;;;;;;;;;;;;;23.82;60.47;99594.88;4455677;32;21289;-85
2022/06/26 05:25:30;;;;;;;;;;;;;;;23.89;60.46;99603.97;4443959;32;20637;-85
2022/06/26 05:27:56;;;;;;;;;;;;;;;23.96;60.47;99593.66;4443406;32;25415;-84
2022/06/26 05:30:21;;;;;;;;;;;;;;;23.99;60.47;99600.53;4456870;32;19992;-84
2022/06/26 05:32:46;;;;;;;;;;;;;;;24.10;60.48;99587.06;4443522;32;20302;-85
2022/06/26 05:35:11;;;;;;;;;;;;;;;24.06;60.48;99596.31;4456802;32;19969;-85
2022/06/26 05:37:37;;;;;;;;;;;;;;;24.15;60.49;99591.03;4455376;32;29956;-82
2022/06/26 05:40:02;;;;;;;;;;;;;;;24.24;60.49;99593.81;4455952;32;20137;-83
2022/06/26 05:42:27;;;;;;;;;;;;;;;24.27;60.49;99597.03;4456164;32;19973;-83
2022/06/26 05:44:53;;;;;;;;;;;;;;;24.52;60.51;99587.66;4470763;32;20012;-84
2022/06/26 05:47:18;;;;;;;;;;;;;;;24.43;60.49;99593.84;4455825;32;23643;-85
2022/06/26 05:49:43;;;;;;;;;;;;;;;24.82;60.52;99586.62;4442862;32;26693;-86
2022/06/26 05:52:08;;;;;;;;;;;;;;;24.87;60.52;99586.22;4456491;32;20275;-86
2022/06/26 05:54:33;;;;;;;;;;;;;;;24.87;60.52;99586.22;4456584;32;27224;-85
2022/06/26 05:56:59;;;;;;;;;;;;;;;24.91;60.52;99585.78;4471613;32;20004;-84
2022/06/26 05:59:24;;;;;;;;;;;;;;;25.13;60.53;99581.97;4457785;32;24873;-86
2022/06/26 06:01:49;;;;;;;;;;;;;;;25.04;60.53;99590.81;4448173;32;29360;-86
2022/06/26 06:04:14;;;;;;;;;;;;;;;25.10;60.53;99592.91;4450216;32;20019;-85
2022/06/26 06:06:40;;;;;;;;;;;;;;;25.08;60.53;99589.56;4462086;32;20015;-85
2022/06/26 06:09:05;;;;;;;;;;;;;;;25.23;60.54;99590.75;4444141;32;20012;-83
2022/06/26 06:11:30;;;;;;;;;;;;;;;25.21;60.53;99599.88;4456905;32;19981;-84
2022/06/26 06:13:56;;;;;;;;;;;;;;;25.12;60.53;99598.94;4443767;32;20219;-83
2022/06/26 06:16:21;;;;;;;;;;;;;;;25.30;60.54;99599.81;4470626;32;20293;-83
2022/06/26 06:18:46;;;;;;;;;;;;;;;25.32;60.55;99594.38;4455948;32;23627;-83
2022/06/26 06:21:11;;;;;;;;;;;;;;;25.37;60.54;99594.75;4456418;32;19991;-82
2022/06/26 06:23:37;;;;;;;;;;;;;;;25.60;60.55;99592.53;4455553;32;22859;-83
2022/06/26 06:26:02;;;;;;;;;;;;;;;25.86;60.58;99606.88;4443552;32;19995;-83
2022/06/26 06:28:28;;;;;;;;;;;;;;;25.92;60.57;99600.94;4443370;32;19993;-84
2022/06/26 06:30:53;;;;;;;;;;;;;;;26.27;60.59;99604.63;4456421;32;19991;-83
2022/06/26 06:33:18;;;;;;;;;;;;;;;26.34;60.60;99599.50;4456436;32;19989;-83
2022/06/26 06:35:43;;;;;;;;;;;;;;;26.49;60.61;99601.47;4456173;32;20028;-84
2022/06/26 06:38:09;;;;;;;;;;;;;;;26.78;60.61;99597.72;4470635;32;20333;-83
2022/06/26 06:40:34;;;;;;;;;;;;;;;26.83;60.62;99606.09;4456186;32;19977;-83
2022/06/26 06:42:59;;;;;;;;;;;;;;;26.95;60.63;99609.31;4456311;32;19977;-84
2022/06/26 06:45:24;;;;;;;;;;;;;;;27.09;60.63;99612.31;4443098;32;20039;-83
2022/06/26 06:47:50;;;;;;;;;;;;;;;27.45;60.66;99613.00;4470415;32;20277;-83
2022/06/26 06:50:15;;;;;;;;;;;;;;;27.60;60.67;99615.88;4456116;32;19973;-82
2022/06/26 06:52:40;;;;;;;;;;;;;;;27.61;60.66;99625.59;4469554;32;31194;-84
2022/06/26 06:55:06;;;;;;;;;;;;;;;27.81;60.66;99618.16;4469621;32;22139;-84
2022/06/26 06:57:31;;;;;;;;;;;;;;;27.93;60.68;99613.37;4456008;32;20003;-84
2022/06/26 06:59:56;;;;;;;;;;;;;;;28.18;60.69;99616.94;4442909;32;19973;-83
2022/06/26 07:02:21;;;;;;;;;;;;;;;28.24;60.70;99619.78;4442947;32;19989;-85
2022/06/26 07:04:46;;;;;;;;;;;;;;;28.31;60.70;99630.69;4455191;32;24079;-83
2022/06/26 07:07:12;;;;;;;;;;;;;;;28.18;60.69;99630.31;4469482;32;27270;-85
2022/06/26 07:09:37;;;;;;;;;;;;;;;28.43;60.71;99621.34;4442663;32;19991;-84
2022/06/26 07:12:03;;;;;;;;;;;;;;;28.74;60.72;99624.16;4455651;32;19974;-84
2022/06/26 07:14:29;;;;;;;;;;;;;;;28.94;60.74;99612.13;4455685;32;19988;-84
2022/06/26 07:16:54;;;;;;;;;;;;;;;29.09;60.73;99614.09;4455672;32;20393;-84
2022/06/26 07:19:19;;;;;;;;;;;;;;;29.23;60.74;99610.72;4455563;32;20021;-84
2022/06/26 07:21:44;;;;;;;;;;;;;;;28.84;60.72;99613.25;4455678;32;20606;-84
2022/06/26 07:24:13;;;;;;;;;;;;;;;29.09;60.73;99614.94;4455476;32;20028;-84
2022/06/26 07:26:38;;;;;;;;;;;;;;;29.17;60.74;99616.78;4469788;32;20049;-83
2022/06/26 07:29:03;;;;;;;;;;;;;;;29.26;60.75;99618.41;4469614;32;19985;-84
2022/06/26 07:31:29;;;;;;;;;;;;;;;29.31;60.75;99616.88;4468769;32;20033;-84
2022/06/26 07:34:12;;;;;;;;;;;;;;;29.39;60.75;99617.88;4441949;32;20050;-83
2022/06/26 07:36:38;;;;;;;;;;;;;;;29.60;60.76;99613.63;4457003;32;20037;-85
2022/06/26 07:39:03;;;;;;;;;;;;;;;29.43;60.76;99611.16;4455254;32;20043;-85
2022/06/26 07:41:28;;;;;;;;;;;;;;;29.54;60.76;99611.63;4454354;32;29135;-85
2022/06/26 07:43:53;;;;;;;;;;;;;;;29.59;60.76;99606.59;4455196;32;20019;-86
2022/06/26 07:46:18;;;;;;;;;;;;;;;29.71;60.77;99604.34;4456308;32;19984;-84
2022/06/26 07:48:44;;;;;;;;;;;;;;;29.66;60.77;99606.72;4457260;32;22639;-84
2022/06/26 07:51:09;;;;;;;;;;;;;;;29.56;60.78;99612.28;4457551;32;20000;-86
2022/06/26 07:53:36;;;;;;;;;;;;;;;29.76;60.78;99601.12;4457450;32;20020;-85
2022/06/26 07:56:02;;;;;;;;;;;;;;;29.89;60.79;99593.34;4444811;32;20062;-85
2022/06/26 07:58:27;;;;;;;;;;;;;;;30.04;60.78;99599.66;4457257;32;20336;-86
2022/06/26 08:00:53;;;;;;;;;;;;;;;30.04;60.79;99605.00;4471140;32;21786;-86
2022/06/26 08:03:18;;;;;;;;;;;;;;;30.20;60.79;99604.91;4457467;32;20594;-86
2022/06/26 08:05:43;;;;;;;;;;;;;;;30.29;60.81;99608.41;4457311;32;20332;-86
2022/06/26 08:08:09;;;;;;;;;;;;;;;30.55;60.82;99595.44;4457098;32;20254;-86
2022/06/26 08:10:34;;;;;;;;;;;;;;;30.57;60.82;99605.16;4457442;32;20034;-86
2022/06/26 08:12:59;;;;;;;;;;;;;;;30.66;60.82;99609.47;4457613;32;19996;-86
2022/06/26 08:15:25;;;;;;;;;;;;;;;30.46;60.81;99598.34;4443830;32;29305;-86
2022/06/26 08:17:50;;;;;;;;;;;;;;;30.82;60.83;99602.09;4444207;32;19968;-85
2022/06/26 08:20:16;;;;;;;;;;;;;;;30.90;60.83;99603.84;4470869;32;29379;-86
2022/06/26 08:22:41;;;;;;;;;;;;;;;30.87;60.84;99606.06;4444659;32;20277;-86
2022/06/26 08:25:06;;;;;;;;;;;;;;;31.00;60.83;99612.50;4457469;32;20000;-86
2022/06/26 08:27:31;;;;;;;;;;;;;;;31.16;60.84;99608.78;4444749;32;19990;-86
2022/06/26 08:29:57;;;;;;;;;;;;;;;31.20;60.85;99612.81;4457150;32;21937;-86
2022/06/26 08:32:22;;;;;;;;;;;;;;;31.39;60.85;99612.25;4456915;32;25091;-86
2022/06/26 08:34:47;;;;;;;;;;;;;;;31.81;60.89;99607.22;4443837;32;20319;-85
2022/06/26 08:37:12;;;;;;;;;;;;;;;31.99;60.90;99613.03;4443632;32;23765;-85
2022/06/26 08:39:38;;;;;;;;;;;;;;;31.84;60.88;99610.34;4457026;32;19991;-85
2022/06/26 08:42:04;;;;;;;;;;;;;;;31.93;60.89;99606.50;4471056;32;19999;-85
2022/06/26 08:44:29;;;;;;;;;;;;;;;32.43;60.91;99612.06;4457082;32;20000;-84
2022/06/26 08:46:55;;;;;;;;;;;;;;;32.27;60.92;99607.75;4443677;32;21861;-85
2022/06/26 08:49:23;;;;;;;;;;;;;;;32.57;60.92;99606.56;4444194;32;20241;-84
2022/06/26 08:51:49;;;;;;;;;;;;;;;32.39;60.92;99608.88;4444320;32;19995;-84
2022/06/26 08:54:14;;;;;;;;;;;;;;;32.12;60.90;99612.31;4471283;32;19977;-84
2022/06/26 08:56:41;;;;;;;;;;;;;;;32.30;60.91;99608.19;4456850;32;20043;-85
2022/06/26 08:59:06;;;;;;;;;;;;;;;32.62;60.92;99608.66;4456319;32;20056;-84
2022/06/26 09:01:32;;;;;;;;;;;;;;;32.98;60.94;99600.50;4471382;32;20022;-84
2022/06/26 09:03:57;;;;;;;;;;;;;;;33.03;60.95;99599.88;4456931;32;19992;-84
2022/06/26 09:06:22;;;;;;;;;;;;;;;33.23;60.96;99596.28;4456332;32;25638;-84
2022/06/26 09:08:51;;;;;;;;;;;;;;;33.19;60.95;99596.87;4444192;32;20596;-84
2022/06/26 09:11:16;;;;;;;;;;;;;;;33.41;60.97;99598.50;4456714;32;20032;-84
2022/06/26 09:13:42;;;;;;;;;;;;;;;33.45;60.97;99596.22;4456833;32;20269;-85
2022/06/26 09:16:07;;;;;;;;;;;;;;;33.57;60.97;99598.13;4456670;32;20374;-84
2022/06/26 09:18:33;;;;;;;;;;;;;;;33.79;60.98;99595.31;4456822;32;19972;-85
2022/06/26 09:20:59;;;;;;;;;;;;;;;33.99;60.99;99593.53;4444033;32;19984;-84
2022/06/26 09:23:24;;;;;;;;;;;;;;;34.19;61.00;99596.28;4456954;32;20043;-84
2022/06/26 09:25:49;;;;;;;;;;;;;;;34.06;61.00;99596.22;4456057;32;31179;-84
2022/06/26 09:28:15;;;;;;;;;;;;;;;33.97;61.00;99600.16;4444128;32;20041;-84
2022/06/26 09:30:53;;;;;;;;;;;;;;;34.26;61.01;99593.56;4457188;32;19976;-84
2022/06/26 09:33:19;;;;;;;;;;;;;;;34.34;61.01;99594.25;4457387;32;19975;-84
2022/06/26 09:35:45;;;;;;;;;;;;;;;34.20;61.01;99597.94;4457200;32;20018;-85
2022/06/26 09:38:10;;;;;;;;;;;;;;;34.12;61.01;99590.03;4444733;32;19989;-85
2022/06/26 09:40:35;;;;;;;;;;;;;;;34.17;61.01;99595.66;4472178;32;19988;-84
2022/06/26 09:43:00;;;;;;;;;;;;;;;34.38;61.02;99586.56;4476316;32;19996;-85
2022/06/26 09:45:26;;;;;;;;;;;;;;;34.57;61.02;99593.03;4476390;32;29580;-84
2022/06/26 09:47:51;;;;;;;;;;;;;;;34.52;61.01;99580.09;4476783;32;20009;-85
2022/06/26 09:50:16;;;;;;;;;;;;;;;34.70;61.04;99593.00;4444389;32;26922;-83
2022/06/26 09:52:42;;;;;;;;;;;;;;;34.73;61.03;99590.69;4457428;32;20054;-86
2022/06/26 09:55:07;;;;;;;;;;;;;;;34.69;61.04;99583.22;4464356;32;19983;-84
2022/06/26 09:57:33;;;;;;;;;;;;;;;34.85;61.04;99582.84;4481423;32;19956;-85
2022/06/26 09:59:58;;;;;;;;;;;;;;;34.97;61.04;99583.84;4463796;32;20027;-84
2022/06/26 10:07:52;;;;;;;;;;;;;;;34.90;61.04;99583.03;4458899;32;19995;-84
2022/06/26 10:10:18;;;;;;;;;;;;;;;34.94;61.05;99586.97;4456181;32;20294;-84
2022/06/26 10:12:43;;;;;;;;;;;;;;;34.66;61.03;99583.66;4443519;32;20046;-84
2022/06/26 10:15:09;;;;;;;;;;;;;;;34.74;61.03;99583.44;4443672;32;20357;-84
2022/06/26 10:17:44;;;;;;;;;;;;;;;34.67;61.03;99580.72;4443656;32;19969;-85
2022/06/26 10:20:09;;;;;;;;;;;;;;;34.66;61.03;99576.38;4457258;32;19996;-84
2022/06/26 10:22:41;;;;;;;;;;;;;;;34.90;61.04;99576.78;4456726;32;20448;-84
2022/06/26 10:25:06;;;;;;;;;;;;;;;34.98;61.04;99580.09;4456308;32;19992;-84
2022/06/26 10:27:32;;;;;;;;;;;;;;;35.21;61.06;99578.78;4456411;32;19977;-84
2022/06/26 10:30:14;;;;;;;;;;;;;;;35.19;61.06;99564.66;4443566;32;20029;-84
2022/06/26 10:32:39;;;;;;;;;;;;;;;35.13;61.05;99570.91;4456948;32;20004;-83
2022/06/26 10:35:05;;;;;;;;;;;;;;;35.16;61.06;99574.03;4456437;32;20597;-84
2022/06/26 10:37:41;;;;;;;;;;;;;;;35.17;61.06;99578.38;4456542;32;19977;-84
2022/06/26 10:43:06;;;;;;;;;;;;;;;35.65;61.09;99573.44;4458450;32;20046;-84
2022/06/26 10:45:32;;;;;;;;;;;;;;;35.76;61.09;99565.69;4470352;32;20261;-84
2022/06/26 10:48:01;;;;;;;;;;;;;;;35.84;61.09;99565.47;4456245;32;19985;-84
2022/06/26 10:50:31;;;;;;;;;;;;;;;35.89;61.08;99565.63;4470093;32;19977;-84
2022/06/26 10:53:16;;;;;;;;;;;;;;;35.85;61.09;99564.41;4456694;32;19997;-85
2022/06/26 10:55:41;;;;;;;;;;;;;;;35.83;61.09;99570.06;4443345;32;20341;-83
2022/06/26 10:58:06;;;;;;;;;;;;;;;35.75;61.09;99556.75;4455990;32;20081;-84
2022/06/26 11:00:32;;;;;;;;;;;;;;;35.65;61.08;99573.44;4455066;32;25235;-84
2022/06/26 11:02:57;;;;;;;;;;;;;;;35.36;61.07;99565.87;4455139;32;33424;-84
2022/06/26 11:05:22;;;;;;;;;;;;;;;35.36;61.07;99565.87;4455924;32;20018;-85
2022/06/26 11:07:48;;;;;;;;;;;;;;;35.72;61.08;99569.88;4455553;32;20521;-84
2022/06/26 11:10:14;;;;;;;;;;;;;;;36.09;61.10;99565.53;4442870;32;20011;-84
2022/06/26 11:12:43;;;;;;;;;;;;;;;36.34;61.11;99565.56;4456004;32;20063;-84
2022/06/26 11:15:18;;;;;;;;;;;;;;;36.58;61.12;99568.28;4455717;32;19977;-84
2022/06/26 11:17:53;;;;;;;;;;;;;;;36.58;61.12;99564.75;4470013;32;19980;-84
2022/06/26 11:23:04;;;;;;;;;;;;;;;36.70;61.13;99562.97;4472195;32;20382;-84
2022/06/26 11:25:29;;;;;;;;;;;;;;;36.45;61.11;99559.44;4457747;32;19968;-84
2022/06/26 11:27:55;;;;;;;;;;;;;;;36.51;61.12;99561.28;4444168;32;26021;-82
2022/06/26 11:30:20;;;;;;;;;;;;;;;36.60;61.12;99562.62;4457622;32;19977;-84
2022/06/26 11:32:45;;;;;;;;;;;;;;;36.60;61.12;99551.78;4457968;32;20004;-83
2022/06/26 11:35:11;;;;;;;;;;;;;;;36.35;61.11;99553.69;4457974;32;20634;-84
2022/06/26 11:37:36;;;;;;;;;;;;;;;36.27;61.11;99563.72;4457661;32;19973;-84
2022/06/26 11:40:11;;;;;;;;;;;;;;;36.17;61.11;99560.66;4444797;32;20317;-84
2022/06/26 11:42:37;;;;;;;;;;;;;;;36.29;61.12;99558.91;4457735;32;19997;-84
2022/06/26 11:45:02;;;;;;;;;;;;;;;35.97;61.11;99552.69;4457432;32;24423;-84
2022/06/26 11:47:28;;;;;;;;;;;;;;;36.01;61.10;99550.38;4457660;32;19981;-84
2022/06/26 11:49:53;;;;;;;;;;;;;;;35.86;61.10;99553.38;4472107;32;20004;-83
2022/06/26 11:52:19;;;;;;;;;;;;;;;35.92;61.10;99551.66;4456964;32;27819;-84
2022/06/26 11:54:44;;;;;;;;;;;;;;;35.69;61.08;99550.28;4457269;32;20004;-84
2022/06/26 11:57:10;;;;;;;;;;;;;;;35.60;61.08;99551.59;4457353;32;19976;-84
2022/06/26 11:59:45;;;;;;;;;;;;;;;35.58;61.09;99547.47;4457695;32;20024;-83
2022/06/26 12:02:17;;;;;;;;;;;;;;;35.40;61.08;99550.03;4444698;32;20037;-84
2022/06/26 12:04:52;;;;;;;;;;;;;;;35.33;61.08;99544.63;4457489;32;19991;-84
2022/06/26 12:07:18;;;;;;;;;;;;;;;35.33;61.08;99553.56;4445859;32;19981;-84
2022/06/26 12:09:43;;;;;;;;;;;;;;;35.36;61.07;99550.47;4471060;32;30152;-85
2022/06/26 12:12:11;;;;;;;;;;;;;;;35.60;61.08;99542.66;4444454;32;19999;-84
2022/06/26 12:14:36;;;;;;;;;;;;;;;35.24;61.06;99545.88;4457509;32;19983;-84
2022/06/26 12:17:05;;;;;;;;;;;;;;;35.21;61.06;99544.44;4457410;32;19973;-85
2022/06/26 12:19:37;;;;;;;;;;;;;;;35.22;61.06;99546.09;4457577;32;20363;-85
2022/06/26 12:22:03;;;;;;;;;;;;;;;35.33;61.07;99545.44;4457605;32;20011;-84
2022/06/26 12:24:28;;;;;;;;;;;;;;;35.64;61.09;99533.88;4471570;32;20017;-84
2022/06/26 12:26:56;;;;;;;;;;;;;;;35.91;61.10;99540.00;4444168;32;35617;-85
2022/06/26 12:29:21;;;;;;;;;;;;;;;36.22;61.10;99530.22;4457285;32;20332;-84
2022/06/26 12:31:48;;;;;;;;;;;;;;;36.45;61.13;99521.50;4457392;32;19985;-84
2022/06/26 12:34:13;;;;;;;;;;;;;;;36.34;61.11;99527.63;4444414;32;20000;-85
2022/06/26 12:36:38;;;;;;;;;;;;;;;36.25;61.11;99527.06;4456245;32;30079;-83
2022/06/26 12:39:04;;;;;;;;;;;;;;;36.35;61.12;99527.41;4444187;32;20020;-83
2022/06/26 12:41:29;;;;;;;;;;;;;;;36.36;61.12;99528.22;4444286;32;20008;-84
2022/06/26 12:43:55;;;;;;;;;;;;;;;36.38;61.12;99531.53;4456675;32;25973;-84
2022/06/26 12:46:21;;;;;;;;;;;;;;;36.50;61.13;99518.94;4444505;32;19980;-84
2022/06/26 12:48:46;;;;;;;;;;;;;;;36.55;61.13;99517.22;4444929;32;20019;-83
2022/06/26 12:51:11;;;;;;;;;;;;;;;36.67;61.13;99522.72;4444532;32;20032;-84
2022/06/26 12:53:37;;;;;;;;;;;;;;;36.54;61.13;99520.97;4457231;32;20349;-83